sensor_id;sensor_type;location;lat;lon;timestamp;P1;durP1;ratioP1;P2;durP2;ratioP2
79751;SDS011;69234;47.446;21.636;2023-08-17T00:00:10;18.90;;;18.90;;
79751;SDS011;69234;47.446;21.636;2023-08-17T00:00:44;18.70;;;18.70;;
79751;SDS011;69234;47.446;21.636;2023-08-17T00:01:15;18.47;;;18.47;;
79751;SDS011;69234;47.446;21.636;2023-08-17T00:01:46;17.83;;;17.83;;
79751;SDS011;69234;47.446;21.636;2023-08-17T00:02:17;17.63;;;17.63;;
79751;SDS011;69234;47.446;21.636;2023-08-17T00:02:48;18.07;;;18.07;;
79751;SDS011;69234;47.446;21.636;2023-08-17T00:03:19;18.83;;;18.83;;
79751;SDS011;69234;47.446;21.636;2023-08-17T00:03:51;18.57;;;18.57;;
79751;SDS011;69234;47.446;21.636;2023-08-17T00:04:22;18.53;;;18.53;;
79751;SDS011;69234;47.446;21.636;2023-08-17T00:04:53;18.43;;;18.43;;
79751;SDS011;69234;47.446;21.636;2023-08-17T00:05:24;18.10;;;18.10;;
79751;SDS011;69234;47.446;21.636;2023-08-17T00:05:56;18.17;;;18.17;;
79751;SDS011;69234;47.446;21.636;2023-08-17T00:06:27;18.30;;;18.30;;
79751;SDS011;69234;47.446;21.636;2023-08-17T00:06:58;19.17;;;19.17;;
79751;SDS011;69234;47.446;21.636;2023-08-17T00:07:29;18.43;;;18.43;;
79751;SDS011;69234;47.446;21.636;2023-08-17T00:08:00;18.27;;;18.27;;
79751;SDS011;69234;47.446;21.636;2023-08-17T00:08:32;18.80;;;18.80;;
79751;SDS011;69234;47.446;21.636;2023-08-17T00:09:03;17.57;;;17.57;;
79751;SDS011;69234;47.446;21.636;2023-08-17T00:09:34;18.10;;;18.10;;
79751;SDS011;69234;47.446;21.636;2023-08-17T00:10:05;17.83;;;17.83;;
79751;SDS011;69234;47.446;21.636;2023-08-17T00:10:36;18.53;;;18.53;;
79751;SDS011;69234;47.446;21.636;2023-08-17T00:11:08;19.17;;;19.17;;
79751;SDS011;69234;47.446;21.636;2023-08-17T00:11:39;17.60;;;17.60;;
79751;SDS011;69234;47.446;21.636;2023-08-17T00:12:10;17.80;;;17.80;;
79751;SDS011;69234;47.446;21.636;2023-08-17T00:12:41;18.83;;;18.83;;
79751;SDS011;69234;47.446;21.636;2023-08-17T00:13:12;18.53;;;18.53;;
79751;SDS011;69234;47.446;21.636;2023-08-17T00:13:44;18.37;;;18.37;;
79751;SDS011;69234;47.446;21.636;2023-08-17T00:14:15;17.33;;;17.33;;
79751;SDS011;69234;47.446;21.636;2023-08-17T00:14:46;18.20;;;18.20;;
79751;SDS011;69234;47.446;21.636;2023-08-17T00:15:17;18.30;;;18.30;;
79751;SDS011;69234;47.446;21.636;2023-08-17T00:15:48;18.17;;;18.17;;
79751;SDS011;69234;47.446;21.636;2023-08-17T00:16:19;18.43;;;18.43;;
79751;SDS011;69234;47.446;21.636;2023-08-17T00:16:50;18.37;;;18.37;;
79751;SDS011;69234;47.446;21.636;2023-08-17T00:17:21;19.13;;;19.13;;
79751;SDS011;69234;47.446;21.636;2023-08-17T00:17:52;18.50;;;18.50;;
79751;SDS011;69234;47.446;21.636;2023-08-17T00:18:23;17.70;;;17.70;;
79751;SDS011;69234;47.446;21.636;2023-08-17T00:18:54;16.97;;;16.97;;
79751;SDS011;69234;47.446;21.636;2023-08-17T00:19:25;17.23;;;17.23;;
79751;SDS011;69234;47.446;21.636;2023-08-17T00:19:56;18.27;;;18.27;;
79751;SDS011;69234;47.446;21.636;2023-08-17T00:20:27;19.07;;;19.07;;
79751;SDS011;69234;47.446;21.636;2023-08-17T00:20:58;18.97;;;18.97;;
79751;SDS011;69234;47.446;21.636;2023-08-17T00:21:29;18.30;;;18.30;;
79751;SDS011;69234;47.446;21.636;2023-08-17T00:22:00;17.37;;;17.37;;
79751;SDS011;69234;47.446;21.636;2023-08-17T00:22:31;18.43;;;18.43;;
79751;SDS011;69234;47.446;21.636;2023-08-17T00:23:02;18.50;;;18.50;;
79751;SDS011;69234;47.446;21.636;2023-08-17T00:23:33;18.03;;;18.03;;
79751;SDS011;69234;47.446;21.636;2023-08-17T00:24:04;17.77;;;17.77;;
79751;SDS011;69234;47.446;21.636;2023-08-17T00:24:35;18.30;;;18.30;;
79751;SDS011;69234;47.446;21.636;2023-08-17T00:25:09;18.10;;;18.10;;
79751;SDS011;69234;47.446;21.636;2023-08-17T00:25:40;18.40;;;18.40;;
79751;SDS011;69234;47.446;21.636;2023-08-17T00:26:11;18.13;;;18.13;;
79751;SDS011;69234;47.446;21.636;2023-08-17T00:26:42;17.67;;;17.67;;
79751;SDS011;69234;47.446;21.636;2023-08-17T00:27:13;17.50;;;17.50;;
79751;SDS011;69234;47.446;21.636;2023-08-17T00:27:44;17.77;;;17.77;;
79751;SDS011;69234;47.446;21.636;2023-08-17T00:28:15;18.03;;;18.03;;
79751;SDS011;69234;47.446;21.636;2023-08-17T00:28:46;17.97;;;17.97;;
79751;SDS011;69234;47.446;21.636;2023-08-17T00:29:17;18.23;;;18.23;;
79751;SDS011;69234;47.446;21.636;2023-08-17T00:29:48;18.67;;;18.67;;
79751;SDS011;69234;47.446;21.636;2023-08-17T00:30:20;17.80;;;17.80;;
79751;SDS011;69234;47.446;21.636;2023-08-17T00:30:51;17.33;;;17.33;;
79751;SDS011;69234;47.446;21.636;2023-08-17T00:31:22;19.00;;;19.00;;
79751;SDS011;69234;47.446;21.636;2023-08-17T00:31:53;18.40;;;18.40;;
79751;SDS011;69234;47.446;21.636;2023-08-17T00:32:24;17.77;;;17.77;;
79751;SDS011;69234;47.446;21.636;2023-08-17T00:32:55;17.30;;;17.30;;
79751;SDS011;69234;47.446;21.636;2023-08-17T00:33:26;17.67;;;17.67;;
79751;SDS011;69234;47.446;21.636;2023-08-17T00:33:57;17.53;;;17.53;;
79751;SDS011;69234;47.446;21.636;2023-08-17T00:34:28;17.77;;;17.77;;
79751;SDS011;69234;47.446;21.636;2023-08-17T00:34:59;18.00;;;18.00;;
79751;SDS011;69234;47.446;21.636;2023-08-17T00:35:32;18.10;;;18.10;;
79751;SDS011;69234;47.446;21.636;2023-08-17T00:36:03;17.60;;;17.60;;
79751;SDS011;69234;47.446;21.636;2023-08-17T00:36:34;18.60;;;18.60;;
79751;SDS011;69234;47.446;21.636;2023-08-17T00:37:05;17.83;;;17.83;;
79751;SDS011;69234;47.446;21.636;2023-08-17T00:37:36;17.80;;;17.80;;
79751;SDS011;69234;47.446;21.636;2023-08-17T00:38:08;17.27;;;17.27;;
79751;SDS011;69234;47.446;21.636;2023-08-17T00:38:39;18.23;;;18.23;;
79751;SDS011;69234;47.446;21.636;2023-08-17T00:39:10;18.23;;;18.23;;
79751;SDS011;69234;47.446;21.636;2023-08-17T00:39:41;17.50;;;17.50;;
79751;SDS011;69234;47.446;21.636;2023-08-17T00:40:12;17.73;;;17.73;;
79751;SDS011;69234;47.446;21.636;2023-08-17T00:40:43;16.50;;;16.50;;
79751;SDS011;69234;47.446;21.636;2023-08-17T00:41:14;17.33;;;17.33;;
79751;SDS011;69234;47.446;21.636;2023-08-17T00:41:45;18.43;;;18.43;;
79751;SDS011;69234;47.446;21.636;2023-08-17T00:42:17;17.17;;;17.17;;
79751;SDS011;69234;47.446;21.636;2023-08-17T00:42:48;17.17;;;17.17;;
79751;SDS011;69234;47.446;21.636;2023-08-17T00:43:19;17.63;;;17.63;;
79751;SDS011;69234;47.446;21.636;2023-08-17T00:43:51;18.37;;;18.37;;
79751;SDS011;69234;47.446;21.636;2023-08-17T00:44:22;17.93;;;17.93;;
79751;SDS011;69234;47.446;21.636;2023-08-17T00:44:53;17.77;;;17.77;;
79751;SDS011;69234;47.446;21.636;2023-08-17T00:45:24;17.33;;;17.33;;
79751;SDS011;69234;47.446;21.636;2023-08-17T00:45:57;17.30;;;17.30;;
79751;SDS011;69234;47.446;21.636;2023-08-17T00:46:29;17.97;;;17.97;;
79751;SDS011;69234;47.446;21.636;2023-08-17T00:47:01;17.83;;;17.83;;
79751;SDS011;69234;47.446;21.636;2023-08-17T00:47:32;17.93;;;17.93;;
79751;SDS011;69234;47.446;21.636;2023-08-17T00:48:03;17.63;;;17.63;;
79751;SDS011;69234;47.446;21.636;2023-08-17T00:48:37;17.43;;;17.43;;
79751;SDS011;69234;47.446;21.636;2023-08-17T00:49:08;18.33;;;18.33;;
79751;SDS011;69234;47.446;21.636;2023-08-17T00:49:40;17.50;;;17.50;;
79751;SDS011;69234;47.446;21.636;2023-08-17T00:50:12;17.07;;;17.07;;
79751;SDS011;69234;47.446;21.636;2023-08-17T00:50:45;17.27;;;17.27;;
79751;SDS011;69234;47.446;21.636;2023-08-17T00:51:21;17.80;;;17.80;;
79751;SDS011;69234;47.446;21.636;2023-08-17T00:51:54;18.23;;;18.23;;
79751;SDS011;69234;47.446;21.636;2023-08-17T00:52:25;18.00;;;18.00;;
79751;SDS011;69234;47.446;21.636;2023-08-17T00:52:56;18.47;;;18.47;;
79751;SDS011;69234;47.446;21.636;2023-08-17T00:53:28;18.10;;;18.10;;
79751;SDS011;69234;47.446;21.636;2023-08-17T00:54:03;17.70;;;17.70;;
79751;SDS011;69234;47.446;21.636;2023-08-17T00:54:34;17.97;;;17.97;;
79751;SDS011;69234;47.446;21.636;2023-08-17T00:55:05;17.67;;;17.67;;
79751;SDS011;69234;47.446;21.636;2023-08-17T00:55:37;18.17;;;18.17;;
79751;SDS011;69234;47.446;21.636;2023-08-17T00:56:08;18.27;;;18.27;;
79751;SDS011;69234;47.446;21.636;2023-08-17T00:56:40;17.77;;;17.77;;
79751;SDS011;69234;47.446;21.636;2023-08-17T00:57:11;17.70;;;17.70;;
79751;SDS011;69234;47.446;21.636;2023-08-17T00:57:43;17.53;;;17.53;;
79751;SDS011;69234;47.446;21.636;2023-08-17T00:58:15;17.17;;;17.17;;
79751;SDS011;69234;47.446;21.636;2023-08-17T00:58:46;16.50;;;16.50;;
79751;SDS011;69234;47.446;21.636;2023-08-17T00:59:18;18.17;;;18.17;;
79751;SDS011;69234;47.446;21.636;2023-08-17T00:59:50;17.57;;;17.57;;
79751;SDS011;69234;47.446;21.636;2023-08-17T01:00:21;18.27;;;18.27;;
79751;SDS011;69234;47.446;21.636;2023-08-17T01:00:54;17.30;;;17.30;;
79751;SDS011;69234;47.446;21.636;2023-08-17T01:01:25;18.80;;;18.80;;
79751;SDS011;69234;47.446;21.636;2023-08-17T01:01:56;18.50;;;18.50;;
79751;SDS011;69234;47.446;21.636;2023-08-17T01:02:27;17.80;;;17.80;;
79751;SDS011;69234;47.446;21.636;2023-08-17T01:03:01;18.43;;;18.43;;
79751;SDS011;69234;47.446;21.636;2023-08-17T01:03:32;18.73;;;18.73;;
79751;SDS011;69234;47.446;21.636;2023-08-17T01:04:04;18.73;;;18.73;;
79751;SDS011;69234;47.446;21.636;2023-08-17T01:04:35;18.83;;;18.83;;
79751;SDS011;69234;47.446;21.636;2023-08-17T01:05:07;18.13;;;18.13;;
79751;SDS011;69234;47.446;21.636;2023-08-17T01:05:38;18.17;;;18.17;;
79751;SDS011;69234;47.446;21.636;2023-08-17T01:06:09;18.50;;;18.50;;
79751;SDS011;69234;47.446;21.636;2023-08-17T01:06:40;18.33;;;18.33;;
79751;SDS011;69234;47.446;21.636;2023-08-17T01:07:11;18.27;;;18.27;;
79751;SDS011;69234;47.446;21.636;2023-08-17T01:07:42;18.60;;;18.60;;
79751;SDS011;69234;47.446;21.636;2023-08-17T01:08:13;18.83;;;18.83;;
79751;SDS011;69234;47.446;21.636;2023-08-17T01:08:44;18.00;;;18.00;;
79751;SDS011;69234;47.446;21.636;2023-08-17T01:09:16;18.40;;;18.40;;
79751;SDS011;69234;47.446;21.636;2023-08-17T01:09:47;18.07;;;18.07;;
79751;SDS011;69234;47.446;21.636;2023-08-17T01:10:18;18.60;;;18.60;;
79751;SDS011;69234;47.446;21.636;2023-08-17T01:10:57;19.33;;;19.33;;
79751;SDS011;69234;47.446;21.636;2023-08-17T01:12:31;18.23;;;18.23;;
79751;SDS011;69234;47.446;21.636;2023-08-17T01:13:21;18.93;;;18.93;;
79751;SDS011;69234;47.446;21.636;2023-08-17T01:14:51;18.03;;;18.03;;
79751;SDS011;69234;47.446;21.636;2023-08-17T01:15:31;17.93;;;17.93;;
79751;SDS011;69234;47.446;21.636;2023-08-17T01:16:19;19.03;;;19.03;;
79751;SDS011;69234;47.446;21.636;2023-08-17T01:17:01;18.97;;;18.97;;
79751;SDS011;69234;47.446;21.636;2023-08-17T01:17:51;19.80;;;19.80;;
79751;SDS011;69234;47.446;21.636;2023-08-17T01:18:31;19.10;;;19.10;;
79751;SDS011;69234;47.446;21.636;2023-08-17T01:19:07;19.97;;;19.97;;
79751;SDS011;69234;47.446;21.636;2023-08-17T01:19:42;19.40;;;19.40;;
79751;SDS011;69234;47.446;21.636;2023-08-17T01:20:16;18.93;;;18.93;;
79751;SDS011;69234;47.446;21.636;2023-08-17T01:20:48;19.03;;;19.03;;
79751;SDS011;69234;47.446;21.636;2023-08-17T01:21:21;18.47;;;18.47;;
79751;SDS011;69234;47.446;21.636;2023-08-17T01:21:56;18.97;;;18.97;;
79751;SDS011;69234;47.446;21.636;2023-08-17T01:22:33;20.07;;;20.07;;
79751;SDS011;69234;47.446;21.636;2023-08-17T01:23:07;18.77;;;18.77;;
79751;SDS011;69234;47.446;21.636;2023-08-17T01:23:38;19.20;;;19.20;;
79751;SDS011;69234;47.446;21.636;2023-08-17T01:24:10;18.67;;;18.67;;
79751;SDS011;69234;47.446;21.636;2023-08-17T01:24:42;18.50;;;18.50;;
79751;SDS011;69234;47.446;21.636;2023-08-17T01:25:13;18.23;;;18.23;;
79751;SDS011;69234;47.446;21.636;2023-08-17T01:25:44;18.67;;;18.67;;
79751;SDS011;69234;47.446;21.636;2023-08-17T01:26:15;18.67;;;18.67;;
79751;SDS011;69234;47.446;21.636;2023-08-17T01:26:47;18.50;;;18.50;;
79751;SDS011;69234;47.446;21.636;2023-08-17T01:27:18;19.17;;;19.17;;
79751;SDS011;69234;47.446;21.636;2023-08-17T01:27:49;18.10;;;18.10;;
79751;SDS011;69234;47.446;21.636;2023-08-17T01:28:20;18.50;;;18.50;;
79751;SDS011;69234;47.446;21.636;2023-08-17T01:28:51;18.33;;;18.33;;
79751;SDS011;69234;47.446;21.636;2023-08-17T01:29:22;18.33;;;18.33;;
79751;SDS011;69234;47.446;21.636;2023-08-17T01:29:53;18.87;;;18.87;;
79751;SDS011;69234;47.446;21.636;2023-08-17T01:30:25;18.17;;;18.17;;
79751;SDS011;69234;47.446;21.636;2023-08-17T01:31:00;18.93;;;18.93;;
79751;SDS011;69234;47.446;21.636;2023-08-17T01:32:07;19.83;;;19.83;;
79751;SDS011;69234;47.446;21.636;2023-08-17T01:32:48;19.03;;;19.03;;
79751;SDS011;69234;47.446;21.636;2023-08-17T01:33:30;18.83;;;18.83;;
79751;SDS011;69234;47.446;21.636;2023-08-17T01:34:24;19.40;;;19.40;;
79751;SDS011;69234;47.446;21.636;2023-08-17T01:35:04;19.13;;;19.13;;
79751;SDS011;69234;47.446;21.636;2023-08-17T01:35:56;19.70;;;19.70;;
79751;SDS011;69234;47.446;21.636;2023-08-17T01:36:52;19.83;;;19.83;;
79751;SDS011;69234;47.446;21.636;2023-08-17T01:37:28;20.07;;;20.07;;
79751;SDS011;69234;47.446;21.636;2023-08-17T01:38:04;19.20;;;19.20;;
79751;SDS011;69234;47.446;21.636;2023-08-17T01:38:41;18.87;;;18.87;;
79751;SDS011;69234;47.446;21.636;2023-08-17T01:39:15;19.47;;;19.47;;
79751;SDS011;69234;47.446;21.636;2023-08-17T01:39:49;18.97;;;18.97;;
79751;SDS011;69234;47.446;21.636;2023-08-17T01:40:26;20.40;;;20.40;;
79751;SDS011;69234;47.446;21.636;2023-08-17T01:40:59;19.50;;;19.50;;
79751;SDS011;69234;47.446;21.636;2023-08-17T01:41:32;19.60;;;19.60;;
79751;SDS011;69234;47.446;21.636;2023-08-17T01:42:04;19.07;;;19.07;;
79751;SDS011;69234;47.446;21.636;2023-08-17T01:42:37;19.37;;;19.37;;
79751;SDS011;69234;47.446;21.636;2023-08-17T01:43:10;19.63;;;19.63;;
79751;SDS011;69234;47.446;21.636;2023-08-17T01:43:43;18.87;;;18.87;;
79751;SDS011;69234;47.446;21.636;2023-08-17T01:44:16;18.40;;;18.40;;
79751;SDS011;69234;47.446;21.636;2023-08-17T01:44:48;18.67;;;18.67;;
79751;SDS011;69234;47.446;21.636;2023-08-17T01:45:20;18.63;;;18.63;;
79751;SDS011;69234;47.446;21.636;2023-08-17T01:45:51;18.50;;;18.50;;
79751;SDS011;69234;47.446;21.636;2023-08-17T01:46:22;19.23;;;19.23;;
79751;SDS011;69234;47.446;21.636;2023-08-17T01:46:53;19.30;;;19.30;;
79751;SDS011;69234;47.446;21.636;2023-08-17T01:47:26;19.57;;;19.57;;
79751;SDS011;69234;47.446;21.636;2023-08-17T01:47:57;18.97;;;18.97;;
79751;SDS011;69234;47.446;21.636;2023-08-17T01:48:28;18.47;;;18.47;;
79751;SDS011;69234;47.446;21.636;2023-08-17T01:48:59;18.47;;;18.47;;
79751;SDS011;69234;47.446;21.636;2023-08-17T01:49:30;19.00;;;19.00;;
79751;SDS011;69234;47.446;21.636;2023-08-17T01:50:03;19.70;;;19.70;;
79751;SDS011;69234;47.446;21.636;2023-08-17T01:50:34;18.53;;;18.53;;
79751;SDS011;69234;47.446;21.636;2023-08-17T01:51:05;19.30;;;19.30;;
79751;SDS011;69234;47.446;21.636;2023-08-17T01:51:36;19.87;;;19.87;;
79751;SDS011;69234;47.446;21.636;2023-08-17T01:52:07;19.17;;;19.17;;
79751;SDS011;69234;47.446;21.636;2023-08-17T01:52:38;19.13;;;19.13;;
79751;SDS011;69234;47.446;21.636;2023-08-17T01:53:10;18.37;;;18.37;;
79751;SDS011;69234;47.446;21.636;2023-08-17T01:53:41;18.87;;;18.87;;
79751;SDS011;69234;47.446;21.636;2023-08-17T01:54:12;18.50;;;18.50;;
79751;SDS011;69234;47.446;21.636;2023-08-17T01:54:43;18.83;;;18.83;;
79751;SDS011;69234;47.446;21.636;2023-08-17T01:55:14;20.10;;;20.10;;
79751;SDS011;69234;47.446;21.636;2023-08-17T01:55:46;19.90;;;19.90;;
79751;SDS011;69234;47.446;21.636;2023-08-17T01:56:17;18.90;;;18.90;;
79751;SDS011;69234;47.446;21.636;2023-08-17T01:56:49;18.60;;;18.60;;
79751;SDS011;69234;47.446;21.636;2023-08-17T01:57:21;19.17;;;19.17;;
79751;SDS011;69234;47.446;21.636;2023-08-17T01:57:52;18.33;;;18.33;;
79751;SDS011;69234;47.446;21.636;2023-08-17T01:58:23;17.40;;;17.40;;
79751;SDS011;69234;47.446;21.636;2023-08-17T01:58:54;18.63;;;18.63;;
79751;SDS011;69234;47.446;21.636;2023-08-17T01:59:26;18.83;;;18.83;;
79751;SDS011;69234;47.446;21.636;2023-08-17T01:59:59;19.20;;;19.20;;
79751;SDS011;69234;47.446;21.636;2023-08-17T02:00:30;18.70;;;18.70;;
79751;SDS011;69234;47.446;21.636;2023-08-17T02:01:01;18.80;;;18.80;;
79751;SDS011;69234;47.446;21.636;2023-08-17T02:01:33;19.77;;;19.77;;
79751;SDS011;69234;47.446;21.636;2023-08-17T02:02:04;19.60;;;19.60;;
79751;SDS011;69234;47.446;21.636;2023-08-17T02:02:34;19.57;;;19.57;;
79751;SDS011;69234;47.446;21.636;2023-08-17T02:03:05;19.93;;;19.93;;
79751;SDS011;69234;47.446;21.636;2023-08-17T02:03:36;19.93;;;19.93;;
79751;SDS011;69234;47.446;21.636;2023-08-17T02:04:07;19.03;;;19.03;;
79751;SDS011;69234;47.446;21.636;2023-08-17T02:04:38;19.20;;;19.20;;
79751;SDS011;69234;47.446;21.636;2023-08-17T02:05:10;20.20;;;20.20;;
79751;SDS011;69234;47.446;21.636;2023-08-17T02:05:45;19.97;;;19.97;;
79751;SDS011;69234;47.446;21.636;2023-08-17T02:06:19;19.93;;;19.93;;
79751;SDS011;69234;47.446;21.636;2023-08-17T02:06:50;19.77;;;19.77;;
79751;SDS011;69234;47.446;21.636;2023-08-17T02:07:20;19.37;;;19.37;;
79751;SDS011;69234;47.446;21.636;2023-08-17T02:07:53;19.63;;;19.63;;
79751;SDS011;69234;47.446;21.636;2023-08-17T02:08:24;18.73;;;18.73;;
79751;SDS011;69234;47.446;21.636;2023-08-17T02:08:58;19.33;;;19.33;;
79751;SDS011;69234;47.446;21.636;2023-08-17T02:09:29;19.20;;;19.20;;
79751;SDS011;69234;47.446;21.636;2023-08-17T02:10:01;18.97;;;18.97;;
79751;SDS011;69234;47.446;21.636;2023-08-17T02:10:33;19.63;;;19.63;;
79751;SDS011;69234;47.446;21.636;2023-08-17T02:11:04;19.30;;;19.30;;
79751;SDS011;69234;47.446;21.636;2023-08-17T02:11:35;19.80;;;19.80;;
79751;SDS011;69234;47.446;21.636;2023-08-17T02:12:06;19.17;;;19.17;;
79751;SDS011;69234;47.446;21.636;2023-08-17T02:12:38;18.70;;;18.70;;
79751;SDS011;69234;47.446;21.636;2023-08-17T02:13:09;18.77;;;18.77;;
79751;SDS011;69234;47.446;21.636;2023-08-17T02:13:40;18.80;;;18.80;;
79751;SDS011;69234;47.446;21.636;2023-08-17T02:14:11;19.43;;;19.43;;
79751;SDS011;69234;47.446;21.636;2023-08-17T02:14:42;18.17;;;18.17;;
79751;SDS011;69234;47.446;21.636;2023-08-17T02:15:13;18.93;;;18.93;;
79751;SDS011;69234;47.446;21.636;2023-08-17T02:15:44;19.40;;;19.40;;
79751;SDS011;69234;47.446;21.636;2023-08-17T02:16:16;18.97;;;18.97;;
79751;SDS011;69234;47.446;21.636;2023-08-17T02:16:47;18.70;;;18.70;;
79751;SDS011;69234;47.446;21.636;2023-08-17T02:17:19;19.10;;;19.10;;
79751;SDS011;69234;47.446;21.636;2023-08-17T02:17:51;18.97;;;18.97;;
79751;SDS011;69234;47.446;21.636;2023-08-17T02:18:22;18.93;;;18.93;;
79751;SDS011;69234;47.446;21.636;2023-08-17T02:18:54;19.47;;;19.47;;
79751;SDS011;69234;47.446;21.636;2023-08-17T02:19:25;19.17;;;19.17;;
79751;SDS011;69234;47.446;21.636;2023-08-17T02:19:56;19.40;;;19.40;;
79751;SDS011;69234;47.446;21.636;2023-08-17T02:20:27;19.87;;;19.87;;
79751;SDS011;69234;47.446;21.636;2023-08-17T02:20:58;20.07;;;20.07;;
79751;SDS011;69234;47.446;21.636;2023-08-17T02:21:28;20.67;;;20.67;;
79751;SDS011;69234;47.446;21.636;2023-08-17T02:22:00;20.80;;;20.80;;
79751;SDS011;69234;47.446;21.636;2023-08-17T02:22:31;21.73;;;21.73;;
79751;SDS011;69234;47.446;21.636;2023-08-17T02:23:02;21.43;;;21.43;;
79751;SDS011;69234;47.446;21.636;2023-08-17T02:23:34;21.93;;;21.93;;
79751;SDS011;69234;47.446;21.636;2023-08-17T02:24:05;20.53;;;20.53;;
79751;SDS011;69234;47.446;21.636;2023-08-17T02:24:37;20.83;;;20.83;;
79751;SDS011;69234;47.446;21.636;2023-08-17T02:25:08;21.17;;;21.17;;
79751;SDS011;69234;47.446;21.636;2023-08-17T02:25:39;21.97;;;21.97;;
79751;SDS011;69234;47.446;21.636;2023-08-17T02:26:11;20.33;;;20.33;;
79751;SDS011;69234;47.446;21.636;2023-08-17T02:26:41;21.17;;;21.17;;
79751;SDS011;69234;47.446;21.636;2023-08-17T02:27:12;21.50;;;21.50;;
79751;SDS011;69234;47.446;21.636;2023-08-17T02:27:43;20.93;;;20.93;;
79751;SDS011;69234;47.446;21.636;2023-08-17T02:28:14;21.30;;;21.30;;
79751;SDS011;69234;47.446;21.636;2023-08-17T02:28:45;21.20;;;21.20;;
79751;SDS011;69234;47.446;21.636;2023-08-17T02:29:16;22.30;;;22.30;;
79751;SDS011;69234;47.446;21.636;2023-08-17T02:29:47;22.27;;;22.27;;
79751;SDS011;69234;47.446;21.636;2023-08-17T02:30:18;21.30;;;21.30;;
79751;SDS011;69234;47.446;21.636;2023-08-17T02:30:51;21.30;;;21.30;;
79751;SDS011;69234;47.446;21.636;2023-08-17T02:31:26;21.63;;;21.63;;
79751;SDS011;69234;47.446;21.636;2023-08-17T02:32:00;21.17;;;21.17;;
79751;SDS011;69234;47.446;21.636;2023-08-17T02:32:31;22.23;;;22.23;;
79751;SDS011;69234;47.446;21.636;2023-08-17T02:33:02;22.17;;;22.17;;
79751;SDS011;69234;47.446;21.636;2023-08-17T02:33:33;20.97;;;20.97;;
79751;SDS011;69234;47.446;21.636;2023-08-17T02:34:04;21.67;;;21.67;;
79751;SDS011;69234;47.446;21.636;2023-08-17T02:34:35;21.07;;;21.07;;
79751;SDS011;69234;47.446;21.636;2023-08-17T02:35:06;21.13;;;21.13;;
79751;SDS011;69234;47.446;21.636;2023-08-17T02:35:38;20.93;;;20.93;;
79751;SDS011;69234;47.446;21.636;2023-08-17T02:36:08;21.87;;;21.87;;
79751;SDS011;69234;47.446;21.636;2023-08-17T02:36:40;21.27;;;21.27;;
79751;SDS011;69234;47.446;21.636;2023-08-17T02:37:10;21.13;;;21.13;;
79751;SDS011;69234;47.446;21.636;2023-08-17T02:37:41;21.93;;;21.93;;
79751;SDS011;69234;47.446;21.636;2023-08-17T02:38:12;22.13;;;22.13;;
79751;SDS011;69234;47.446;21.636;2023-08-17T02:38:43;21.03;;;21.03;;
79751;SDS011;69234;47.446;21.636;2023-08-17T02:39:14;21.07;;;21.07;;
79751;SDS011;69234;47.446;21.636;2023-08-17T02:39:45;21.40;;;21.40;;
79751;SDS011;69234;47.446;21.636;2023-08-17T02:40:16;21.10;;;21.10;;
79751;SDS011;69234;47.446;21.636;2023-08-17T02:40:48;21.30;;;21.30;;
79751;SDS011;69234;47.446;21.636;2023-08-17T02:41:20;20.93;;;20.93;;
79751;SDS011;69234;47.446;21.636;2023-08-17T02:41:52;21.53;;;21.53;;
79751;SDS011;69234;47.446;21.636;2023-08-17T02:42:23;22.57;;;22.57;;
79751;SDS011;69234;47.446;21.636;2023-08-17T02:42:54;22.43;;;22.43;;
79751;SDS011;69234;47.446;21.636;2023-08-17T02:43:26;21.40;;;21.40;;
79751;SDS011;69234;47.446;21.636;2023-08-17T02:43:57;22.30;;;22.30;;
79751;SDS011;69234;47.446;21.636;2023-08-17T02:44:28;21.47;;;21.47;;
79751;SDS011;69234;47.446;21.636;2023-08-17T02:44:59;20.33;;;20.33;;
79751;SDS011;69234;47.446;21.636;2023-08-17T02:45:30;20.73;;;20.73;;
79751;SDS011;69234;47.446;21.636;2023-08-17T02:46:01;21.77;;;21.77;;
79751;SDS011;69234;47.446;21.636;2023-08-17T02:46:33;21.73;;;21.73;;
79751;SDS011;69234;47.446;21.636;2023-08-17T02:47:04;21.67;;;21.67;;
79751;SDS011;69234;47.446;21.636;2023-08-17T02:47:35;21.17;;;21.17;;
79751;SDS011;69234;47.446;21.636;2023-08-17T02:48:06;21.13;;;21.13;;
79751;SDS011;69234;47.446;21.636;2023-08-17T02:48:37;20.47;;;20.47;;
79751;SDS011;69234;47.446;21.636;2023-08-17T02:49:08;22.27;;;22.27;;
79751;SDS011;69234;47.446;21.636;2023-08-17T02:49:39;20.87;;;20.87;;
79751;SDS011;69234;47.446;21.636;2023-08-17T02:50:10;20.50;;;20.50;;
79751;SDS011;69234;47.446;21.636;2023-08-17T02:50:41;20.70;;;20.70;;
79751;SDS011;69234;47.446;21.636;2023-08-17T02:51:12;21.80;;;21.80;;
79751;SDS011;69234;47.446;21.636;2023-08-17T02:51:43;21.83;;;21.83;;
79751;SDS011;69234;47.446;21.636;2023-08-17T02:52:14;21.53;;;21.53;;
79751;SDS011;69234;47.446;21.636;2023-08-17T02:52:45;22.00;;;22.00;;
79751;SDS011;69234;47.446;21.636;2023-08-17T02:53:16;23.43;;;23.43;;
79751;SDS011;69234;47.446;21.636;2023-08-17T02:53:47;22.57;;;22.57;;
79751;SDS011;69234;47.446;21.636;2023-08-17T02:54:18;21.43;;;21.43;;
79751;SDS011;69234;47.446;21.636;2023-08-17T02:54:49;23.20;;;23.20;;
79751;SDS011;69234;47.446;21.636;2023-08-17T02:55:20;23.53;;;23.53;;
79751;SDS011;69234;47.446;21.636;2023-08-17T02:55:51;25.53;;;25.53;;
79751;SDS011;69234;47.446;21.636;2023-08-17T02:56:22;26.30;;;26.30;;
79751;SDS011;69234;47.446;21.636;2023-08-17T02:56:53;26.93;;;26.93;;
79751;SDS011;69234;47.446;21.636;2023-08-17T02:57:25;27.03;;;27.03;;
79751;SDS011;69234;47.446;21.636;2023-08-17T02:57:56;26.53;;;26.53;;
79751;SDS011;69234;47.446;21.636;2023-08-17T02:58:26;28.03;;;28.03;;
79751;SDS011;69234;47.446;21.636;2023-08-17T02:59:00;27.70;;;27.70;;
79751;SDS011;69234;47.446;21.636;2023-08-17T02:59:31;27.80;;;27.80;;
79751;SDS011;69234;47.446;21.636;2023-08-17T03:00:02;27.17;;;27.17;;
79751;SDS011;69234;47.446;21.636;2023-08-17T03:00:34;28.30;;;28.30;;
79751;SDS011;69234;47.446;21.636;2023-08-17T03:01:05;27.63;;;27.63;;
79751;SDS011;69234;47.446;21.636;2023-08-17T03:01:35;28.57;;;28.57;;
79751;SDS011;69234;47.446;21.636;2023-08-17T03:02:06;28.60;;;28.60;;
79751;SDS011;69234;47.446;21.636;2023-08-17T03:02:39;26.37;;;26.37;;
79751;SDS011;69234;47.446;21.636;2023-08-17T03:03:10;26.13;;;26.13;;
79751;SDS011;69234;47.446;21.636;2023-08-17T03:03:41;25.63;;;25.63;;
79751;SDS011;69234;47.446;21.636;2023-08-17T03:04:15;25.20;;;25.20;;
79751;SDS011;69234;47.446;21.636;2023-08-17T03:04:45;24.43;;;24.43;;
79751;SDS011;69234;47.446;21.636;2023-08-17T03:05:16;25.30;;;25.30;;
79751;SDS011;69234;47.446;21.636;2023-08-17T03:05:47;24.87;;;24.87;;
79751;SDS011;69234;47.446;21.636;2023-08-17T03:06:18;25.90;;;25.90;;
79751;SDS011;69234;47.446;21.636;2023-08-17T03:06:49;26.10;;;26.10;;
79751;SDS011;69234;47.446;21.636;2023-08-17T03:07:20;26.10;;;26.10;;